Time;durP1;ratioP1;P1;durP2;ratioP2;P2;SDS_P1;SDS_P2;PMS_P1;PMS_P2;Temp;Humidity;BMP_temperature;BMP_pressure;BME280_temperature;BME280_humidity;BME280_pressure;Samples;Min_cycle;Max_cycle;Signal;HPM_P1;HPM_P2
2023/08/12 07:23:24;;;;;;;4.20;3.80;;;;;;;-145.79;100.00;76754.16;5292604;28;20338;-74
2023/08/12 07:25:55;;;;;;;4.97;4.45;;;;;;;-145.79;100.00;76754.16;5291702;28;20058;-74
2023/08/12 07:28:27;;;;;;;3.83;3.53;;;;;;;-145.79;100.00;76754.16;5286667;28;20047;-75
2023/08/12 07:31:01;;;;;;;4.18;3.88;;;;;;;-145.79;100.00;76747.78;5283887;28;20044;-75
2023/08/12 07:33:34;;;;;;;4.55;4.25;;;;;;;-145.79;100.00;76749.91;5284223;28;20373;-75
2023/08/12 07:36:06;;;;;;;15.82;14.40;;;;;;;-145.79;100.00;76743.56;5284393;28;20067;-76
2023/08/12 07:38:37;;;;;;;5.05;4.60;;;;;;;-145.79;100.00;76735.06;5284463;28;20029;-75
2023/08/12 07:41:08;;;;;;;4.20;3.90;;;;;;;-145.79;100.00;76735.06;5292354;28;20085;-75
2023/08/12 07:43:40;;;;;;;4.05;3.75;;;;;;;-145.79;100.00;76737.19;5292028;28;20034;-75
2023/08/12 07:46:11;;;;;;;3.33;3.13;;;;;;;-145.79;100.00;76730.84;5280972;28;20032;-74
2023/08/12 07:48:42;;;;;;;4.07;3.75;;;;;;;-145.79;100.00;76726.59;5292387;28;20024;-74
2023/08/12 07:51:14;;;;;;;3.33;3.03;;;;;;;-145.79;100.00;76722.34;5288191;28;20056;-74
2023/08/12 07:53:45;;;;;;;3.17;2.97;;;;;;;-145.79;100.00;76716.00;5292317;28;20021;-73
2023/08/12 07:56:17;;;;;;;2.95;2.75;;;;;;;-145.79;100.00;76716.00;5286839;28;20108;-77
2023/08/12 07:58:48;;;;;;;3.10;2.90;;;;;;;-145.79;100.00;76711.75;5282623;28;20099;-74
2023/08/12 08:01:21;;;;;;;2.65;2.45;;;;;;;-145.79;100.00;76711.75;5290457;28;20475;-74
2023/08/12 08:03:52;;;;;;;3.20;2.90;;;;;;;-145.79;100.00;76707.53;5284458;28;20017;-74
2023/08/12 08:06:24;;;;;;;2.33;2.13;;;;;;;-145.79;100.00;76705.41;5287981;28;20469;-74
2023/08/12 08:08:55;;;;;;;2.95;2.67;;;;;;;-145.79;100.00;76716.00;5286468;28;20492;-75
2023/08/12 08:11:26;;;;;;;2.35;2.05;;;;;;;-145.79;100.00;76703.28;5288976;28;20025;-74
2023/08/12 08:13:58;;;;;;;2.17;1.98;;;;;;;-145.79;100.00;76711.75;5286791;28;20118;-74
2023/08/12 08:16:32;;;;;;;1.92;1.80;;;;;;;-145.79;100.00;76713.88;5282660;28;20033;-71
2023/08/12 08:19:03;;;;;;;1.75;1.65;;;;;;;-145.79;100.00;76716.00;5278707;28;20037;-71
2023/08/12 08:21:36;;;;;;;2.55;1.92;;;;;;;-145.79;100.00;76722.34;5262171;28;20034;-71
2023/08/12 08:24:11;;;;;;;2.10;2.00;;;;;;;-145.79;100.00;76724.47;5196807;28;20343;-69
2023/08/12 08:26:42;;;;;;;1.95;1.85;;;;;;;-145.79;100.00;76716.00;5200106;28;20048;-70
2023/08/12 08:29:13;;;;;;;2.53;2.33;;;;;;;-145.79;100.00;76711.75;5191908;28;20027;-70
2023/08/12 08:31:45;;;;;;;3.45;3.20;;;;;;;-145.79;100.00;76720.25;5203574;28;20072;-71
2023/08/12 08:34:16;;;;;;;2.90;2.70;;;;;;;-145.79;100.00;76713.88;5194676;28;20031;-68
2023/08/12 08:36:47;;;;;;;3.65;3.45;;;;;;;-145.79;100.00;76716.00;5172515;28;20548;-70
2023/08/12 08:39:19;;;;;;;4.00;3.70;;;;;;;-145.79;100.00;76709.66;5171283;28;20040;-70
2023/08/12 08:41:54;;;;;;;4.90;4.50;;;;;;;-145.79;100.00;76705.41;5169608;28;20092;-69
2023/08/12 08:44:29;;;;;;;5.43;5.00;;;;;;;-145.79;100.00;76694.81;5181849;28;20545;-69
2023/08/12 08:47:01;;;;;;;7.13;6.53;;;;;;;-145.79;100.00;76716.00;5189199;28;20043;-69
2023/08/12 08:49:35;;;;;;;6.65;6.25;;;;;;;-145.79;100.00;76707.53;5184129;28;20460;-69
2023/08/12 08:52:06;;;;;;;6.72;6.32;;;;;;;-145.79;100.00;76707.53;5186969;28;20019;-69
2023/08/12 08:54:39;;;;;;;7.63;7.13;;;;;;;-145.79;100.00;76703.28;5178619;28;20474;-70
2023/08/12 08:57:12;;;;;;;7.85;7.35;;;;;;;-145.79;100.00;76718.13;5193944;28;20117;-69
2023/08/12 08:59:44;;;;;;;7.60;7.00;;;;;;;-145.79;100.00;76716.00;5185372;28;20050;-70
2023/08/12 09:02:18;;;;;;;7.53;6.88;;;;;;;-145.79;100.00;76724.47;5187315;28;20080;-70
2023/08/12 09:04:50;;;;;;;6.03;5.63;;;;;;;-145.79;100.00;76741.44;5186137;28;20042;-70
2023/08/12 09:07:22;;;;;;;6.35;5.93;;;;;;;-145.79;100.00;76739.31;5182215;28;20023;-70
2023/08/12 09:09:56;;;;;;;5.05;4.65;;;;;;;-145.79;100.00;76737.19;5190008;28;20026;-70
2023/08/12 09:12:31;;;;;;;4.57;4.28;;;;;;;-145.79;100.00;76741.44;5187550;28;20095;-70
2023/08/12 09:15:04;;;;;;;3.97;3.67;;;;;;;-145.79;100.00;76737.19;5184169;28;20028;-69
2023/08/12 09:17:35;;;;;;;4.50;4.20;;;;;;;-145.79;100.00;76745.69;5187272;28;20494;-70
2023/08/12 09:20:11;;;;;;;4.72;4.38;;;;;;;-145.79;100.00;76737.19;5182031;28;20055;-71
2023/08/12 09:22:42;;;;;;;4.72;4.32;;;;;;;-145.79;100.00;76739.31;5189261;28;20046;-71
2023/08/12 09:25:14;;;;;;;5.50;5.00;;;;;;;-145.79;100.00;76741.44;5178592;28;20390;-69
2023/08/12 09:27:45;;;;;;;3.92;3.63;;;;;;;-145.79;100.00;76745.69;5188251;28;20027;-70
2023/08/12 09:30:17;;;;;;;4.63;4.22;;;;;;;-145.79;100.00;76760.50;5190522;28;20112;-70
2023/08/12 09:33:00;;;;;;;3.38;3.17;;;;;;;-145.79;100.00;76783.81;5170200;28;20027;-70
2023/08/12 09:35:36;;;;;;;4.22;3.15;;;;;;;-145.79;100.00;76781.69;5171422;28;20474;-70
2023/08/12 09:38:11;;;;;;;2.50;2.30;;;;;;;-145.79;100.00;76798.66;5174766;28;20042;-71
2023/08/12 09:40:44;;;;;;;2.63;2.38;;;;;;;-145.79;100.00;76802.91;5184242;28;20037;-70
2023/08/12 09:43:16;;;;;;;2.70;2.50;;;;;;;-145.79;100.00;76817.72;5177825;28;20030;-71
2023/08/12 09:45:47;;;;;;;5.60;2.25;;;;;;;-145.79;100.00;76821.97;5173934;28;20483;-71
2023/08/12 09:48:20;;;;;;;2.95;2.35;;;;;;;-145.79;100.00;76809.25;5175528;28;20038;-70
2023/08/12 09:50:52;;;;;;;2.42;2.15;;;;;;;-145.79;100.00;76805.00;5192042;28;20022;-69
2023/08/12 09:53:23;;;;;;;4.65;3.45;;;;;;;-145.79;100.00;76809.25;5182726;28;20083;-70
2023/08/12 09:56:00;;;;;;;5.18;4.28;;;;;;;-145.79;100.00;76817.72;5190976;28;20474;-70
2023/08/12 09:58:32;;;;;;;5.22;3.38;;;;;;;-145.79;100.00;76824.09;5186268;28;20023;-70
2023/08/12 10:01:04;;;;;;;4.10;3.80;;;;;;;-145.79;100.00;76828.31;5182152;28;20545;-75
2023/08/12 10:03:36;;;;;;;4.88;4.40;;;;;;;-145.79;100.00;76821.97;5183083;28;20023;-83
2023/08/12 10:06:08;;;;;;;3.05;2.65;;;;;;;-145.79;99.30;76849.53;5188513;28;20034;-70
2023/08/12 10:08:40;;;;;;;4.20;3.00;;;;;;;-145.79;99.78;76832.56;5185100;28;20022;-70
2023/08/12 10:11:12;;;;;;;4.45;2.72;;;;;;;-145.79;99.33;76832.56;5183145;28;20105;-71
2023/08/12 10:13:43;;;;;;;4.70;2.90;;;;;;;-145.79;99.48;76849.53;5188505;28;20130;-71
2023/08/12 10:16:15;;;;;;;3.47;2.90;;;;;;;-145.79;99.21;76836.81;5189288;28;20054;-72
2023/08/12 10:18:47;;;;;;;11.48;8.95;;;;;;;-145.79;98.04;76847.41;5184198;28;20101;-72
2023/08/12 10:21:20;;;;;;;3.25;2.17;;;;;;;-145.79;97.71;76805.00;5174979;28;20070;-72
2023/08/12 10:23:53;;;;;;;3.67;2.33;;;;;;;-145.79;97.74;76781.69;5173544;28;20034;-72
2023/08/12 10:26:25;;;;;;;3.92;2.05;;;;;;;-145.79;97.24;76792.31;5170602;28;20023;-72
2023/08/12 10:28:56;;;;;;;3.35;2.78;;;;;;;-145.79;96.44;76779.59;5187504;28;20030;-72
2023/08/12 10:31:29;;;;;;;2.70;1.88;;;;;;;-145.79;96.03;76758.38;5185638;28;20425;-72
2023/08/12 10:34:00;;;;;;;3.20;1.90;;;;;;;-145.79;94.87;76732.97;5181942;28;20027;-71
2023/08/12 10:36:31;;;;;;;8.70;7.68;;;;;;;-145.79;93.13;76728.72;5176258;28;20430;-71
2023/08/12 10:39:09;;;;;;;5.30;2.90;;;;;;;-145.79;90.09;76737.19;5187904;28;20030;-73
2023/08/12 10:41:52;;;;;;;4.40;3.00;;;;;;;-145.79;91.08;76732.97;5185874;28;20054;-71
2023/08/12 10:44:47;;;;;;;3.80;2.45;;;;;;;-145.79;90.91;76747.78;5172978;28;20030;-69
2023/08/12 10:47:19;;;;;;;3.92;2.30;;;;;;;-145.79;91.42;76743.56;5185645;28;20043;-69
2023/08/12 10:49:53;;;;;;;5.00;1.80;;;;;;;-145.79;89.95;76741.44;5182760;28;20031;-71
2023/08/12 10:52:32;;;;;;;4.40;1.90;;;;;;;-145.79;89.02;76728.72;5163128;28;20019;-72
2023/08/12 10:55:18;;;;;;;3.72;2.08;;;;;;;-145.79;88.68;76703.28;5172819;28;20383;-71
2023/08/12 10:57:52;;;;;;;7.22;3.08;;;;;;;-145.79;88.37;76696.94;5178071;28;20039;-71
2023/08/12 11:00:26;;;;;;;4.43;2.30;;;;;;;-145.79;88.13;76696.94;5182270;28;20123;-71
2023/08/12 11:02:58;;;;;;;2.67;2.03;;;;;;;-145.79;84.42;76735.06;5180505;28;20031;-72
2023/08/12 11:05:38;;;;;;;5.18;2.35;;;;;;;-145.79;84.78;76711.75;5186079;28;20030;-72
2023/08/12 11:08:13;;;;;;;3.13;1.90;;;;;;;-145.79;84.14;76703.28;5185618;28;20030;-72
2023/08/12 11:10:44;;;;;;;3.33;1.50;;;;;;;-145.79;82.18;76703.28;5180753;28;20068;-72
2023/08/12 11:13:15;;;;;;;3.97;1.70;;;;;;;-145.79;80.28;76694.81;5176294;28;20782;-74
2023/08/12 11:15:47;;;;;;;4.30;2.00;;;;;;;-145.79;76.96;76716.00;5172882;28;20023;-73
2023/08/12 11:18:20;;;;;;;4.45;1.90;;;;;;;-145.79;76.24;76707.53;5167564;28;20028;-71
2023/08/12 11:20:52;;;;;;;3.75;1.75;;;;;;;-145.79;73.00;76713.88;5178073;28;20445;-70
2023/08/12 11:23:23;;;;;;;4.18;2.05;;;;;;;-145.79;71.11;76705.41;5177854;28;20066;-73
2023/08/12 11:25:55;;;;;;;3.67;1.73;;;;;;;-145.79;72.27;76688.44;5179773;28;20076;-71
2023/08/12 11:28:26;;;;;;;7.95;2.17;;;;;;;-145.79;71.93;76673.63;5178827;28;20031;-77
2023/08/12 11:30:58;;;;;;;6.28;2.60;;;;;;;-145.79;71.79;76660.91;5187072;28;20029;-71
2023/08/12 11:33:31;;;;;;;6.00;1.90;;;;;;;-145.79;71.28;76656.66;5186696;28;20083;-71
2023/08/12 11:36:03;;;;;;;10.68;6.60;;;;;;;-145.79;71.27;76648.19;5180266;28;20030;-69
2023/08/12 11:38:34;;;;;;;13.57;10.82;;;;;;;-145.79;71.37;76673.63;5185629;28;20034;-71
2023/08/12 11:41:06;;;;;;;23.73;18.60;;;;;;;-145.79;71.81;76667.25;5184398;28;20466;-74
2023/08/12 11:43:37;;;;;;;6.60;4.60;;;;;;;-145.79;72.85;76675.75;5183899;28;20027;-73
2023/08/12 11:46:08;;;;;;;7.07;3.92;;;;;;;-145.79;72.75;76692.69;5186420;28;20474;-75
2023/08/12 11:48:40;;;;;;;7.05;2.55;;;;;;;-145.79;73.45;76694.81;5173480;28;20114;-70
2023/08/12 11:51:11;;;;;;;5.18;2.20;;;;;;;-145.79;73.70;76686.34;5166456;28;20031;-72
2023/08/12 11:53:43;;;;;;;6.78;2.35;;;;;;;-145.79;74.61;76665.16;5158374;28;20035;-73
2023/08/12 11:56:14;;;;;;;5.93;2.20;;;;;;;-145.79;73.69;76635.47;5168878;28;20037;-71
2023/08/12 11:58:50;;;;;;;6.65;3.28;;;;;;;-145.79;70.71;76624.88;5178699;28;20026;-70
2023/08/12 12:01:25;;;;;;;11.05;6.30;;;;;;;-145.79;70.91;76627.00;5176893;28;20051;-69
2023/08/12 12:03:59;;;;;;;7.53;4.03;;;;;;;-145.79;71.44;76616.41;5171416;28;20073;-70
2023/08/12 12:06:36;;;;;;;10.10;9.05;;;;;;;-145.79;71.70;76605.81;5174764;28;20022;-71
2023/08/12 12:09:09;;;;;;;6.07;3.40;;;;;;;-145.79;70.80;76614.28;5177700;28;20133;-75
2023/08/12 12:11:41;;;;;;;4.93;2.50;;;;;;;-145.79;71.02;76620.63;5184490;28;20027;-72
2023/08/12 12:14:13;;;;;;;6.88;2.70;;;;;;;-145.79;71.37;76614.28;5177650;28;20043;-72
2023/08/12 12:16:46;;;;;;;4.82;2.40;;;;;;;-145.79;71.02;76610.03;5158968;28;20461;-72
2023/08/12 12:19:19;;;;;;;5.90;2.92;;;;;;;-145.79;71.41;76584.59;5178452;28;20042;-72
2023/08/12 12:21:52;;;;;;;4.18;2.38;;;;;;;-145.79;72.96;76559.19;5171359;28;20076;-71
2023/08/12 12:24:29;;;;;;;7.30;3.45;;;;;;;-145.79;69.66;76563.41;5185346;28;20115;-72
2023/08/12 12:27:00;;;;;;;5.20;2.85;;;;;;;-145.79;70.90;76542.22;5183532;28;20031;-72
2023/08/12 12:29:32;;;;;;;4.75;2.78;;;;;;;-145.79;70.01;76535.88;5178235;28;20488;-73
2023/08/12 12:32:04;;;;;;;8.65;3.45;;;;;;;-145.79;68.87;76550.69;5185987;28;20547;-72
2023/08/12 12:34:35;;;;;;;6.50;3.05;;;;;;;-145.79;70.17;76542.22;5164332;28;20364;-72
2023/08/12 12:37:06;;;;;;;13.23;4.22;;;;;;;-145.79;67.22;76559.19;5185402;28;20461;-72
2023/08/12 12:39:38;;;;;;;5.45;3.00;;;;;;;-145.79;64.49;76554.94;5192126;28;20032;-73
2023/08/12 12:42:10;;;;;;;7.57;2.25;;;;;;;-145.79;64.03;76521.03;5182030;28;20027;-72
2023/08/12 12:44:41;;;;;;;10.80;3.65;;;;;;;-145.79;64.10;76525.28;5189602;28;20113;-74
2023/08/12 12:47:13;;;;;;;7.78;4.05;;;;;;;-145.79;64.52;76499.84;5187273;28;20110;-73
2023/08/12 12:49:45;;;;;;;7.70;3.17;;;;;;;-145.79;63.54;76491.38;5175908;28;20030;-73
2023/08/12 12:52:16;;;;;;;8.63;5.57;;;;;;;-145.79;64.30;76485.00;5163903;28;20028;-71
2023/08/12 12:54:47;;;;;;;6.88;3.33;;;;;;;-145.79;63.76;76499.84;5173560;28;20023;-73
2023/08/12 12:57:19;;;;;;;9.15;6.07;;;;;;;-145.79;63.10;76474.41;5191584;28;20050;-72
2023/08/12 12:59:50;;;;;;;15.02;12.80;;;;;;;-145.79;62.58;76463.81;5178406;28;20085;-71
2023/08/12 13:02:21;;;;;;;8.48;3.40;;;;;;;-145.79;62.70;76448.97;5189151;28;20049;-73
2023/08/12 13:04:52;;;;;;;8.32;4.00;;;;;;;-145.79;61.69;76461.69;5184196;28;20101;-72
2023/08/12 13:07:24;;;;;;;5.68;3.13;;;;;;;-145.79;62.57;76434.16;5176948;28;20091;-73
2023/08/12 13:09:55;;;;;;;5.05;2.80;;;;;;;-145.79;60.84;76448.97;5178284;28;20023;-73
2023/08/12 13:12:26;;;;;;;5.57;3.17;;;;;;;-145.79;60.93;76453.22;5189965;28;20416;-72
2023/08/12 13:14:58;;;;;;;7.10;5.75;;;;;;;-145.79;60.21;76461.69;5190749;28;20144;-72
2023/08/12 13:17:29;;;;;;;6.50;3.20;;;;;;;-145.79;60.40;76478.66;5177934;28;20085;-74
2023/08/12 13:20:00;;;;;;;8.23;3.13;;;;;;;-145.79;59.11;76455.34;5181645;28;20029;-74
2023/08/12 13:22:32;;;;;;;4.88;3.80;;;;;;;-145.79;58.61;76448.97;5186314;28;20050;-74
2023/08/12 13:25:03;;;;;;;6.63;2.83;;;;;;;-145.79;58.54;76429.91;5188984;28;20378;-72
2023/08/12 13:27:34;;;;;;;7.75;3.60;;;;;;;-145.79;59.55;76448.97;5188147;28;20492;-72
2023/08/12 13:30:06;;;;;;;5.55;2.55;;;;;;;-145.79;57.17;76451.09;5189956;28;20141;-72
2023/08/12 13:32:38;;;;;;;5.15;3.15;;;;;;;-145.79;57.80;76438.38;5188611;28;20037;-71
2023/08/12 13:35:10;;;;;;;6.18;2.70;;;;;;;-145.79;56.13;76415.06;5180315;28;20027;-71
2023/08/12 13:37:42;;;;;;;4.70;2.33;;;;;;;-145.79;55.74;76421.44;5187378;28;20022;-75
2023/08/12 13:40:14;;;;;;;5.82;2.83;;;;;;;-145.79;54.87;76440.50;5192078;28;20385;-73
2023/08/12 13:42:47;;;;;;;4.68;3.10;;;;;;;-145.79;54.63;76415.06;5170270;28;20037;-72
2023/08/12 13:45:18;;;;;;;6.35;3.38;;;;;;;-145.79;54.31;76389.66;5184661;28;20033;-71
2023/08/12 13:47:51;;;;;;;11.80;6.28;;;;;;;-145.79;52.12;76385.41;5172303;28;20019;-72
2023/08/12 13:50:22;;;;;;;8.65;4.32;;;;;;;-145.79;52.64;76355.75;5183835;28;20041;-71
2023/08/12 13:52:54;;;;;;;5.50;2.90;;;;;;;-145.79;51.28;76343.03;5186711;28;20027;-72
2023/08/12 13:55:26;;;;;;;6.07;3.22;;;;;;;-145.79;51.22;76334.56;5191043;28;20096;-72
2023/08/12 13:57:57;;;;;;;9.27;3.35;;;;;;;-145.79;51.19;76340.91;5186214;28;20097;-73
2023/08/12 14:00:32;;;;;;;6.82;4.38;;;;;;;-145.79;51.27;76374.81;5196449;28;20076;-71
2023/08/12 14:03:03;;;;;;;;;;;;;;;-145.79;50.99;76340.91;5186857;28;20109;-72
2023/08/12 14:05:35;;;;;;;4.90;3.10;;;;;;;-145.79;50.92;76400.25;5184975;28;20030;-71
2023/08/12 14:08:06;;;;;;;5.90;3.40;;;;;;;-145.79;50.86;76389.66;5188834;28;20444;-72
2023/08/12 14:10:38;;;;;;;44.67;40.72;;;;;;;-145.79;51.62;76366.34;5186442;28;20031;-72
2023/08/12 14:13:09;;;;;;;20.40;18.35;;;;;;;-145.79;51.02;76385.41;5185125;28;20065;-73
2023/08/12 14:15:40;;;;;;;8.90;4.57;;;;;;;-145.79;51.22;76398.13;5188914;28;20053;-69
2023/08/12 14:18:12;;;;;;;10.88;4.95;;;;;;;-145.79;51.67;76421.44;5189284;28;20111;-73
2023/08/12 14:20:43;;;;;;;6.47;4.30;;;;;;;-145.79;52.06;76379.06;5183485;28;20425;-75
2023/08/12 14:23:15;;;;;;;7.82;4.97;;;;;;;-145.79;50.80;76372.69;5183837;28;20054;-73
2023/08/12 14:25:46;;;;;;;6.03;4.80;;;;;;;-145.79;52.34;76374.81;5183424;28;20091;-74
2023/08/12 14:28:17;;;;;;;9.60;4.78;;;;;;;-145.79;51.35;76368.47;5170734;28;20108;-77
2023/08/12 14:30:49;;;;;;;7.03;5.68;;;;;;;-145.79;51.01;76355.75;5185309;28;20018;-74
2023/08/12 14:33:23;;;;;;;5.70;4.45;;;;;;;-145.79;50.56;76326.06;5187592;28;20457;-80
2023/08/12 14:35:57;;;;;;;7.07;4.72;;;;;;;-145.79;50.91;76296.41;5183495;28;20027;-81
2023/08/12 14:38:29;;;;;;;5.60;4.47;;;;;;;-145.79;50.70;76273.09;5182232;28;20212;-76
2023/08/12 14:41:00;;;;;;;7.00;4.28;;;;;;;-145.79;49.51;76275.22;5179826;28;20087;-81
2023/08/12 14:43:32;;;;;;;8.43;4.72;;;;;;;-145.79;49.64;76309.13;5180801;28;20035;-81
2023/08/12 14:46:03;;;;;;;5.80;4.93;;;;;;;-145.79;49.55;76296.41;5186630;28;20038;-76
2023/08/12 14:48:34;;;;;;;6.97;4.57;;;;;;;-145.79;48.74;76340.91;5185634;28;20026;-79
2023/08/12 14:51:06;;;;;;;6.18;4.47;;;;;;;-145.79;50.56;76311.25;5184329;28;20484;-80
2023/08/12 14:53:37;;;;;;;7.82;5.53;;;;;;;-145.79;50.51;76292.16;5178708;28;20058;-79
2023/08/12 14:56:08;;;;;;;7.00;4.75;;;;;;;-145.79;49.94;76292.16;5188847;28;20022;-80
2023/08/12 14:58:40;;;;;;;6.65;4.13;;;;;;;-145.79;50.65;76277.34;5174742;28;20033;-78
2023/08/12 15:01:12;;;;;;;6.45;4.65;;;;;;;-145.79;49.69;76287.94;5184685;28;20542;-79
2023/08/12 15:03:44;;;;;;;6.93;4.70;;;;;;;-145.79;50.06;76294.28;5185921;28;20405;-78
2023/08/12 15:06:15;;;;;;;7.43;4.90;;;;;;;-145.79;50.36;76304.88;5185354;28;20105;-77
2023/08/12 15:08:47;;;;;;;6.43;5.18;;;;;;;-145.79;50.70;76326.06;5175897;28;20463;-78
2023/08/12 15:11:18;;;;;;;7.72;5.03;;;;;;;-145.79;51.25;76349.38;5181585;28;20034;-79
2023/08/12 15:13:50;;;;;;;6.18;5.38;;;;;;;-145.79;52.31;76351.50;5185098;28;20035;-74
2023/08/12 15:16:21;;;;;;;6.07;4.72;;;;;;;-145.79;52.64;76347.25;5178449;28;20114;-69
2023/08/12 15:18:53;;;;;;;11.45;4.90;;;;;;;-145.79;52.81;76355.75;5174631;28;20026;-72
2023/08/12 15:21:24;;;;;;;22.38;20.23;;;;;;;-145.79;53.37;76368.47;5172893;28;20074;-76
2023/08/12 15:23:55;;;;;;;5.20;3.75;;;;;;;-145.79;52.53;76357.84;5170627;28;20029;-75
2023/08/12 15:26:27;;;;;;;5.20;2.45;;;;;;;-145.79;49.96;76381.16;5172382;28;20023;-75
2023/08/12 15:28:58;;;;;;;4.93;2.47;;;;;;;-145.79;49.98;76368.47;5170103;28;20027;-76
2023/08/12 15:31:29;;;;;;;6.28;2.20;;;;;;;-145.79;50.19;76387.53;5170556;28;20418;-75
2023/08/12 15:34:01;;;;;;;6.88;2.90;;;;;;;-145.79;50.77;76376.94;5168806;28;20450;-74
2023/08/12 15:36:35;;;;;;;3.63;2.08;;;;;;;-145.79;51.41;76374.81;5169366;28;20031;-75
2023/08/12 15:39:07;;;;;;;5.45;2.47;;;;;;;-145.79;51.15;76398.13;5167015;28;20031;-74
2023/08/12 15:41:43;;;;;;;4.03;2.30;;;;;;;-145.79;52.07;76389.66;5170042;28;20023;-71
2023/08/12 15:44:15;;;;;;;5.47;2.65;;;;;;;-145.79;51.95;76393.88;5176396;28;20386;-69
2023/08/12 15:46:46;;;;;;;4.93;3.65;;;;;;;-145.79;52.04;76402.38;5176927;28;20019;-73
2023/08/12 15:49:18;;;;;;;4.38;2.38;;;;;;;-145.79;52.13;76398.13;5173356;28;20024;-73
2023/08/12 15:51:49;;;;;;;3.83;2.20;;;;;;;-145.79;52.22;76408.72;5175998;28;20030;-72
2023/08/12 15:54:21;;;;;;;6.13;2.65;;;;;;;-145.79;52.94;76404.47;5173779;28;20103;-73
2023/08/12 15:56:52;;;;;;;5.18;2.28;;;;;;;-145.79;52.53;76396.00;5182841;28;20080;-73
2023/08/12 15:59:23;;;;;;;3.85;2.55;;;;;;;-145.79;52.07;76400.25;5182386;28;20026;-73
2023/08/12 16:01:54;;;;;;;6.57;2.75;;;;;;;-145.79;52.59;76393.88;5189720;28;20088;-73
2023/08/12 16:04:26;;;;;;;7.25;2.65;;;;;;;-145.79;52.72;76389.66;5183139;28;20023;-72
2023/08/12 16:06:57;;;;;;;5.10;2.85;;;;;;;-145.79;52.28;76393.88;5186210;28;20441;-72
2023/08/12 16:09:30;;;;;;;6.55;2.28;;;;;;;-145.79;52.38;76398.13;5188144;28;20069;-71
2023/08/12 16:12:01;;;;;;;5.28;2.25;;;;;;;-145.79;52.49;76415.06;5187289;28;20073;-71
2023/08/12 16:14:33;;;;;;;5.75;2.80;;;;;;;-145.79;53.06;76432.03;5186210;28;20031;-72
2023/08/12 16:17:08;;;;;;;4.80;2.22;;;;;;;-145.79;53.19;76415.06;5184718;28;20015;-73
2023/08/12 16:19:39;;;;;;;4.53;2.22;;;;;;;-145.79;53.29;76404.47;5174008;28;20057;-72
2023/08/12 16:22:12;;;;;;;5.35;2.28;;;;;;;-145.79;52.86;76400.25;5173802;28;20074;-73
2023/08/12 16:24:44;;;;;;;13.75;10.50;;;;;;;-145.79;52.41;76376.94;5174984;28;20045;-72
2023/08/12 16:27:15;;;;;;;5.55;3.13;;;;;;;-145.79;52.34;76359.97;5172330;28;20019;-73
2023/08/12 16:29:47;;;;;;;5.85;2.83;;;;;;;-145.79;52.51;76372.69;5176603;28;20084;-72
2023/08/12 16:32:18;;;;;;;4.90;2.80;;;;;;;-145.79;52.67;76381.16;5184652;28;20022;-72
2023/08/12 16:34:49;;;;;;;5.40;2.80;;;;;;;-145.79;53.10;76423.56;5182252;28;20489;-72
2023/08/12 16:37:21;;;;;;;5.28;2.80;;;;;;;-145.79;53.67;76410.84;5191536;28;20022;-72
2023/08/12 16:39:52;;;;;;;8.93;3.33;;;;;;;-145.79;54.28;76429.91;5186813;28;20019;-71
2023/08/12 16:42:24;;;;;;;5.55;3.53;;;;;;;-145.79;55.27;76457.47;5173405;28;20462;-73
2023/08/12 16:44:55;;;;;;;5.20;2.97;;;;;;;-145.79;56.08;76453.22;5180068;28;20405;-73
2023/08/12 16:47:27;;;;;;;5.88;3.10;;;;;;;-145.79;56.53;76457.47;5186467;28;20561;-72
2023/08/12 16:49:59;;;;;;;4.68;3.00;;;;;;;-145.79;56.35;76463.81;5185061;28;20482;-72
2023/08/12 16:52:30;;;;;;;6.75;3.17;;;;;;;-145.79;56.86;76461.69;5164371;28;20085;-72
